Main page
METAR-TAF:

METAR-TAF

Airports :

Ciudad Obregón International Airport

Ciudad Obregón, Mexico

latitude: 27-24N, longitude: 109-50W, elevation: 62 m

Current weather observation

The report was made 1 hour and 11 minutes ago, at 14:44 UTC
Wind 4 kt from the Southeast
Temperature 26°C
Humidity 79%
Pressure 1013 hPa
Visibility: 9.7 km
Broken clouds at a height of 1500 ft

METAR: MMCN 291444Z 14004KT 6SM BKN015 26/22 A2992 RMK SLP132 8/600 LWR SC OVR MT NE HZY

Time: 08:55 (15:55 UTC)

Forecast

The report was made 11 hours and 42 minutes ago, at 04:13 UTC
Forecast valid from 29 at 06 UTC to 30 at 06 UTC
Wind 5 kt from the South/Southwest
Visibility: 10 km
Clear sky
From 29 at 1800 UTC
Wind 10 kt from the South/Southwest
Visibility: 10 km
Clear sky
From 30 at 0200 UTC
Wind 5 kt from the South/Southwest
Visibility: 10 km
Clear sky

TAF: MMCN 290413Z 2906/3006 20005KT P6SM SKC FM291800 20010KT P6SM SKC FM300200 20005KT P6SM SKC

Weather observations and forecasts of more than 4000 airports (METAR and TAF reports).

The available stations are represented by yellow and red dots on the map.

Hover mouse over dot to see the name of the station.

Then click to see weather observations and forecasts.

To change the map : click on the green buttons with a black cross to zoom in, on the green button with a dash to zoom out, or on the green arrows for adjacent maps.


METAR-TAF: